sensor_id;sensor_type;location;lat;lon;timestamp;pressure;altitude;pressure_sealevel;temperature;humidity
77410;BME280;66481;51.332;22.804;2023-02-28T00:00:51;101054.53;;;-4.24;78.67
77410;BME280;66481;51.332;22.804;2023-02-28T00:04:53;101056.13;;;-4.35;77.99
77410;BME280;66481;51.332;22.804;2023-02-28T00:09:01;101051.06;;;-4.27;78.05
77410;BME280;66481;51.332;22.804;2023-02-28T00:13:05;101058.78;;;-4.30;80.97
77410;BME280;66481;51.332;22.804;2023-02-28T00:17:06;101055.25;;;-4.39;82.64
77410;BME280;66481;51.332;22.804;2023-02-28T00:21:08;101061.19;;;-4.49;82.56
77410;BME280;66481;51.332;22.804;2023-02-28T00:25:11;101065.50;;;-4.48;78.67
77410;BME280;66481;51.332;22.804;2023-02-28T00:29:12;101057.78;;;-4.46;75.96
77410;BME280;66481;51.332;22.804;2023-02-28T00:33:13;101051.88;;;-4.30;74.80
77410;BME280;66481;51.332;22.804;2023-02-28T00:37:14;101046.09;;;-4.03;72.50
77410;BME280;66481;51.332;22.804;2023-02-28T00:41:15;101046.88;;;-4.11;73.50
77410;BME280;66481;51.332;22.804;2023-02-28T00:45:16;101045.06;;;-4.23;73.45
77410;BME280;66481;51.332;22.804;2023-02-28T00:49:17;101057.69;;;-4.54;75.41
77410;BME280;66481;51.332;22.804;2023-02-28T00:53:18;101049.66;;;-4.82;78.79
77410;BME280;66481;51.332;22.804;2023-02-28T00:57:19;101057.25;;;-4.96;78.04
77410;BME280;66481;51.332;22.804;2023-02-28T01:01:20;101062.38;;;-4.99;78.93
77410;BME280;66481;51.332;22.804;2023-02-28T01:05:21;101060.50;;;-5.12;78.26
77410;BME280;66481;51.332;22.804;2023-02-28T01:09:22;101066.47;;;-5.15;78.44
77410;BME280;66481;51.332;22.804;2023-02-28T01:13:23;101065.63;;;-5.15;81.06
77410;BME280;66481;51.332;22.804;2023-02-28T01:17:24;101061.78;;;-4.75;82.71
77410;BME280;66481;51.332;22.804;2023-02-28T01:21:25;101056.75;;;-4.61;79.65
77410;BME280;66481;51.332;22.804;2023-02-28T01:25:26;101052.19;;;-4.85;77.82
77410;BME280;66481;51.332;22.804;2023-02-28T01:29:27;101056.22;;;-5.10;79.30
77410;BME280;66481;51.332;22.804;2023-02-28T01:33:29;101068.25;;;-5.11;80.95
77410;BME280;66481;51.332;22.804;2023-02-28T01:37:31;101061.22;;;-5.21;79.81
77410;BME280;66481;51.332;22.804;2023-02-28T01:41:33;101058.56;;;-5.29;79.83
77410;BME280;66481;51.332;22.804;2023-02-28T01:45:35;101053.31;;;-5.38;82.11
77410;BME280;66481;51.332;22.804;2023-02-28T01:49:36;101054.00;;;-5.50;81.96
77410;BME280;66481;51.332;22.804;2023-02-28T01:53:41;101054.78;;;-5.55;82.62
77410;BME280;66481;51.332;22.804;2023-02-28T01:57:52;101046.06;;;-5.63;83.87
77410;BME280;66481;51.332;22.804;2023-02-28T02:01:55;101050.38;;;-5.61;83.78
77410;BME280;66481;51.332;22.804;2023-02-28T02:05:57;101060.59;;;-5.70;84.39
77410;BME280;66481;51.332;22.804;2023-02-28T02:10:04;101062.50;;;-5.57;85.39
77410;BME280;66481;51.332;22.804;2023-02-28T02:14:33;101064.19;;;-5.60;87.03
77410;BME280;66481;51.332;22.804;2023-02-28T02:18:47;101076.84;;;-5.73;86.61
77410;BME280;66481;51.332;22.804;2023-02-28T02:31:46;101084.41;;;-5.85;87.42
77410;BME280;66481;51.332;22.804;2023-02-28T02:40:19;101088.97;;;-5.69;91.28
77410;BME280;66481;51.332;22.804;2023-02-28T02:44:27;101099.13;;;-5.79;91.65
77410;BME280;66481;51.332;22.804;2023-02-28T02:48:33;101088.75;;;-5.82;91.41
77410;BME280;66481;51.332;22.804;2023-02-28T02:52:39;101092.91;;;-5.91;90.63
77410;BME280;66481;51.332;22.804;2023-02-28T02:56:44;101094.56;;;-5.97;89.21
77410;BME280;66481;51.332;22.804;2023-02-28T03:00:50;101092.78;;;-6.01;87.45
77410;BME280;66481;51.332;22.804;2023-02-28T03:04:59;101091.94;;;-6.00;88.94
77410;BME280;66481;51.332;22.804;2023-02-28T03:09:01;101087.75;;;-5.92;91.26
77410;BME280;66481;51.332;22.804;2023-02-28T03:17:30;101093.75;;;-5.93;91.53
77410;BME280;66481;51.332;22.804;2023-02-28T03:21:36;101098.75;;;-6.04;90.82
77410;BME280;66481;51.332;22.804;2023-02-28T03:25:56;101079.34;;;-5.80;91.69
77410;BME280;66481;51.332;22.804;2023-02-28T03:30:06;101092.84;;;-5.95;91.38
77410;BME280;66481;51.332;22.804;2023-02-28T03:38:31;101100.50;;;-6.03;90.16
77410;BME280;66481;51.332;22.804;2023-02-28T03:42:36;101102.09;;;-6.10;90.23
77410;BME280;66481;51.332;22.804;2023-02-28T03:46:44;101106.28;;;-6.16;90.43
77410;BME280;66481;51.332;22.804;2023-02-28T03:50:49;101120.03;;;-6.16;89.78
77410;BME280;66481;51.332;22.804;2023-02-28T03:54:56;101114.78;;;-6.20;91.24
77410;BME280;66481;51.332;22.804;2023-02-28T03:59:20;101122.81;;;-6.03;92.02
77410;BME280;66481;51.332;22.804;2023-02-28T04:03:23;101119.34;;;-6.04;91.56
77410;BME280;66481;51.332;22.804;2023-02-28T04:07:24;101117.44;;;-6.17;92.01
77410;BME280;66481;51.332;22.804;2023-02-28T04:11:30;101122.50;;;-6.22;91.64
77410;BME280;66481;51.332;22.804;2023-02-28T04:15:33;101118.16;;;-6.23;92.47
77410;BME280;66481;51.332;22.804;2023-02-28T04:19:34;101116.47;;;-6.22;92.53
77410;BME280;66481;51.332;22.804;2023-02-28T04:23:35;101124.03;;;-6.32;91.97
77410;BME280;66481;51.332;22.804;2023-02-28T04:27:36;101130.84;;;-6.35;92.02
77410;BME280;66481;51.332;22.804;2023-02-28T04:31:37;101121.38;;;-6.36;91.96
77410;BME280;66481;51.332;22.804;2023-02-28T04:35:37;101124.94;;;-6.30;93.25
77410;BME280;66481;51.332;22.804;2023-02-28T04:39:39;101132.84;;;-6.19;93.37
77410;BME280;66481;51.332;22.804;2023-02-28T04:43:40;101131.41;;;-6.03;94.53
77410;BME280;66481;51.332;22.804;2023-02-28T04:47:41;101134.13;;;-5.92;93.86
77410;BME280;66481;51.332;22.804;2023-02-28T04:51:42;101136.88;;;-5.83;94.46
77410;BME280;66481;51.332;22.804;2023-02-28T04:55:44;101133.50;;;-5.79;94.88
77410;BME280;66481;51.332;22.804;2023-02-28T04:59:45;101135.28;;;-5.73;93.96
77410;BME280;66481;51.332;22.804;2023-02-28T05:03:47;101137.03;;;-5.72;93.06
77410;BME280;66481;51.332;22.804;2023-02-28T05:07:47;101138.78;;;-5.70;92.84
77410;BME280;66481;51.332;22.804;2023-02-28T05:11:48;101135.56;;;-5.56;92.25
77410;BME280;66481;51.332;22.804;2023-02-28T05:15:49;101139.88;;;-5.54;91.22
77410;BME280;66481;51.332;22.804;2023-02-28T05:19:50;101144.13;;;-5.59;91.89
77410;BME280;66481;51.332;22.804;2023-02-28T05:23:52;101145.06;;;-5.52;92.02
77410;BME280;66481;51.332;22.804;2023-02-28T05:27:52;101142.09;;;-5.20;91.13
77410;BME280;66481;51.332;22.804;2023-02-28T05:31:53;101151.81;;;-5.01;87.97
77410;BME280;66481;51.332;22.804;2023-02-28T05:35:55;101151.75;;;-5.05;86.91
77410;BME280;66481;51.332;22.804;2023-02-28T05:39:56;101155.16;;;-5.08;87.98
77410;BME280;66481;51.332;22.804;2023-02-28T05:43:57;101151.06;;;-4.92;87.51
77410;BME280;66481;51.332;22.804;2023-02-28T05:48:00;101144.47;;;-4.70;86.71
77410;BME280;66481;51.332;22.804;2023-02-28T05:52:01;101161.13;;;-4.43;87.06
77410;BME280;66481;51.332;22.804;2023-02-28T05:56:03;101170.00;;;-4.20;84.78
77410;BME280;66481;51.332;22.804;2023-02-28T06:00:05;101165.06;;;-3.93;83.62
77410;BME280;66481;51.332;22.804;2023-02-28T06:04:09;101154.22;;;-3.49;83.15
77410;BME280;66481;51.332;22.804;2023-02-28T06:08:10;101144.34;;;-2.63;79.81
77410;BME280;66481;51.332;22.804;2023-02-28T06:12:12;101152.25;;;-2.12;77.11
77410;BME280;66481;51.332;22.804;2023-02-28T06:16:13;101153.13;;;-1.70;72.37
77410;BME280;66481;51.332;22.804;2023-02-28T06:20:14;101147.03;;;-1.34;71.04
77410;BME280;66481;51.332;22.804;2023-02-28T06:24:15;101149.19;;;-0.15;69.87
77410;BME280;66481;51.332;22.804;2023-02-28T06:28:17;101139.94;;;1.36;65.81
77410;BME280;66481;51.332;22.804;2023-02-28T06:32:18;101143.25;;;2.11;62.17
77410;BME280;66481;51.332;22.804;2023-02-28T06:36:20;101143.38;;;2.56;55.47
77410;BME280;66481;51.332;22.804;2023-02-28T06:40:22;101135.63;;;3.41;55.12
77410;BME280;66481;51.332;22.804;2023-02-28T06:44:23;101152.69;;;3.60;51.60
77410;BME280;66481;51.332;22.804;2023-02-28T06:48:26;101148.78;;;3.78;52.17
77410;BME280;66481;51.332;22.804;2023-02-28T06:52:28;101142.25;;;3.96;49.26
77410;BME280;66481;51.332;22.804;2023-02-28T06:56:29;101144.72;;;4.04;48.70
77410;BME280;66481;51.332;22.804;2023-02-28T07:00:30;101150.75;;;4.43;48.24
77410;BME280;66481;51.332;22.804;2023-02-28T07:04:31;101141.19;;;5.06;46.30
77410;BME280;66481;51.332;22.804;2023-02-28T07:08:34;101142.22;;;5.32;45.39
77410;BME280;66481;51.332;22.804;2023-02-28T07:12:37;101145.59;;;5.37;43.60
77410;BME280;66481;51.332;22.804;2023-02-28T07:16:38;101137.59;;;5.11;44.00
77410;BME280;66481;51.332;22.804;2023-02-28T07:20:39;101150.44;;;4.88;44.60
77410;BME280;66481;51.332;22.804;2023-02-28T07:24:40;101147.31;;;5.07;45.04
77410;BME280;66481;51.332;22.804;2023-02-28T07:28:42;101151.75;;;5.96;40.72
77410;BME280;66481;51.332;22.804;2023-02-28T07:32:44;101142.50;;;6.11;41.18
77410;BME280;66481;51.332;22.804;2023-02-28T07:36:45;101141.91;;;6.81;41.14
77410;BME280;66481;51.332;22.804;2023-02-28T07:40:46;101137.16;;;6.66;39.95
77410;BME280;66481;51.332;22.804;2023-02-28T07:44:47;101140.78;;;6.88;39.33
77410;BME280;66481;51.332;22.804;2023-02-28T07:48:48;101140.06;;;7.79;36.97
77410;BME280;66481;51.332;22.804;2023-02-28T07:52:49;101143.16;;;7.43;35.76
77410;BME280;66481;51.332;22.804;2023-02-28T07:56:50;101135.81;;;7.97;36.65
77410;BME280;66481;51.332;22.804;2023-02-28T08:00:51;101125.63;;;9.14;33.20
77410;BME280;66481;51.332;22.804;2023-02-28T08:04:52;101123.63;;;9.95;30.36
77410;BME280;66481;51.332;22.804;2023-02-28T08:08:53;101124.53;;;10.31;30.70
77410;BME280;66481;51.332;22.804;2023-02-28T08:12:54;101123.00;;;10.62;29.53
77410;BME280;66481;51.332;22.804;2023-02-28T08:16:55;101113.66;;;11.71;29.63
77410;BME280;66481;51.332;22.804;2023-02-28T08:20:56;101110.94;;;11.56;27.71
77410;BME280;66481;51.332;22.804;2023-02-28T08:24:58;101110.78;;;11.75;28.39
77410;BME280;66481;51.332;22.804;2023-02-28T08:29:02;101115.09;;;12.24;26.54
77410;BME280;66481;51.332;22.804;2023-02-28T08:33:03;101115.72;;;12.74;27.05
77410;BME280;66481;51.332;22.804;2023-02-28T08:37:04;101117.94;;;12.51;27.03
77410;BME280;66481;51.332;22.804;2023-02-28T08:41:08;101123.09;;;12.69;25.91
77410;BME280;66481;51.332;22.804;2023-02-28T08:45:12;101120.88;;;12.00;27.79
77410;BME280;66481;51.332;22.804;2023-02-28T08:49:13;101123.09;;;12.08;27.34
77410;BME280;66481;51.332;22.804;2023-02-28T08:53:15;101113.00;;;12.15;27.70
77410;BME280;66481;51.332;22.804;2023-02-28T08:57:17;101119.72;;;13.10;25.77
77410;BME280;66481;51.332;22.804;2023-02-28T09:01:21;101124.03;;;11.75;28.55
77410;BME280;66481;51.332;22.804;2023-02-28T09:05:23;101112.56;;;12.07;27.52
77410;BME280;66481;51.332;22.804;2023-02-28T09:09:25;101111.91;;;12.92;25.97
77410;BME280;66481;51.332;22.804;2023-02-28T09:13:26;101111.28;;;13.32;26.71
77410;BME280;66481;51.332;22.804;2023-02-28T09:17:27;101103.28;;;13.17;25.02
77410;BME280;66481;51.332;22.804;2023-02-28T09:21:28;101110.06;;;12.50;25.37
77410;BME280;66481;51.332;22.804;2023-02-28T09:25:30;101115.22;;;12.37;26.75
77410;BME280;66481;51.332;22.804;2023-02-28T09:29:32;101120.16;;;10.49;28.67
77410;BME280;66481;51.332;22.804;2023-02-28T09:33:34;101122.25;;;11.92;27.87
77410;BME280;66481;51.332;22.804;2023-02-28T09:37:35;101122.75;;;11.17;26.95
77410;BME280;66481;51.332;22.804;2023-02-28T09:41:38;101116.50;;;13.05;25.25
77410;BME280;66481;51.332;22.804;2023-02-28T09:45:52;101120.16;;;10.49;28.04
77410;BME280;66481;51.332;22.804;2023-02-28T09:50:06;101118.44;;;10.29;29.61
77410;BME280;66481;51.332;22.804;2023-02-28T09:54:21;101132.56;;;9.74;28.63
77410;BME280;66481;51.332;22.804;2023-02-28T10:06:53;101137.38;;;8.23;31.99
77410;BME280;66481;51.332;22.804;2023-02-28T10:10:58;101130.81;;;9.74;30.28
77410;BME280;66481;51.332;22.804;2023-02-28T10:15:01;101122.06;;;10.28;31.13
77410;BME280;66481;51.332;22.804;2023-02-28T10:19:13;101113.69;;;10.54;28.08
77410;BME280;66481;51.332;22.804;2023-02-28T10:23:30;101113.75;;;10.53;28.09
77410;BME280;66481;51.332;22.804;2023-02-28T10:27:34;101116.19;;;10.91;29.56
77410;BME280;66481;51.332;22.804;2023-02-28T10:31:37;101116.94;;;11.92;27.97
77410;BME280;66481;51.332;22.804;2023-02-28T10:35:42;101110.00;;;12.05;27.38
77410;BME280;66481;51.332;22.804;2023-02-28T10:39:52;101111.09;;;11.85;27.60
77410;BME280;66481;51.332;22.804;2023-02-28T10:44:21;101096.97;;;11.84;27.72
77410;BME280;66481;51.332;22.804;2023-02-28T10:48:33;101090.47;;;12.36;26.59
77410;BME280;66481;51.332;22.804;2023-02-28T10:52:41;101096.13;;;12.00;25.51
77410;BME280;66481;51.332;22.804;2023-02-28T10:57:20;101085.97;;;11.28;28.29
77410;BME280;66481;51.332;22.804;2023-02-28T11:01:37;101099.09;;;10.63;28.55
77410;BME280;66481;51.332;22.804;2023-02-28T11:05:46;101095.81;;;9.50;32.08
77410;BME280;66481;51.332;22.804;2023-02-28T11:09:58;101086.06;;;9.70;31.46
77410;BME280;66481;51.332;22.804;2023-02-28T11:14:04;101078.78;;;9.75;29.98
77410;BME280;66481;51.332;22.804;2023-02-28T11:22:36;101077.41;;;10.39;29.23
77410;BME280;66481;51.332;22.804;2023-02-28T11:26:49;101066.34;;;10.48;29.00
77410;BME280;66481;51.332;22.804;2023-02-28T11:35:38;101062.19;;;9.54;29.41
77410;BME280;66481;51.332;22.804;2023-02-28T11:39:44;101054.78;;;9.24;32.90
77410;BME280;66481;51.332;22.804;2023-02-28T11:48:32;101055.75;;;8.42;32.83
77410;BME280;66481;51.332;22.804;2023-02-28T11:52:53;101055.50;;;8.06;33.43
77410;BME280;66481;51.332;22.804;2023-02-28T12:11:11;101049.44;;;6.68;38.08
77410;BME280;66481;51.332;22.804;2023-02-28T12:15:28;101046.91;;;6.65;37.36
77410;BME280;66481;51.332;22.804;2023-02-28T12:20:21;101037.22;;;6.15;38.19
77410;BME280;66481;51.332;22.804;2023-02-28T12:28:52;101017.63;;;5.44;39.65
77410;BME280;66481;51.332;22.804;2023-02-28T12:32:58;101027.22;;;5.73;39.08
77410;BME280;66481;51.332;22.804;2023-02-28T12:37:07;101017.66;;;4.84;41.77
77410;BME280;66481;51.332;22.804;2023-02-28T12:41:22;101024.16;;;4.07;44.06
77410;BME280;66481;51.332;22.804;2023-02-28T12:54:21;101019.22;;;4.92;42.03
77410;BME280;66481;51.332;22.804;2023-02-28T13:03:06;101006.72;;;5.00;40.31
77410;BME280;66481;51.332;22.804;2023-02-28T13:07:43;101005.16;;;4.94;40.03
77410;BME280;66481;51.332;22.804;2023-02-28T13:11:56;101008.91;;;4.85;42.65
77410;BME280;66481;51.332;22.804;2023-02-28T13:16:10;100999.94;;;4.63;42.01
77410;BME280;66481;51.332;22.804;2023-02-28T13:20:34;100996.66;;;4.23;42.09
77410;BME280;66481;51.332;22.804;2023-02-28T13:24:49;100992.88;;;4.01;43.77
77410;BME280;66481;51.332;22.804;2023-02-28T13:33:22;100983.38;;;3.62;44.68
77410;BME280;66481;51.332;22.804;2023-02-28T13:41:40;100982.00;;;3.82;43.84
77410;BME280;66481;51.332;22.804;2023-02-28T13:46:11;100972.28;;;3.87;44.59
77410;BME280;66481;51.332;22.804;2023-02-28T13:50:36;100964.56;;;3.46;44.01
77410;BME280;66481;51.332;22.804;2023-02-28T14:09:45;100958.09;;;2.86;47.28
77410;BME280;66481;51.332;22.804;2023-02-28T14:13:50;100942.25;;;2.92;47.06
77410;BME280;66481;51.332;22.804;2023-02-28T14:17:55;100944.09;;;2.89;46.68
77410;BME280;66481;51.332;22.804;2023-02-28T14:26:07;100941.03;;;2.68;48.09
77410;BME280;66481;51.332;22.804;2023-02-28T14:34:43;100940.69;;;2.44;49.96
77410;BME280;66481;51.332;22.804;2023-02-28T14:38:55;100938.72;;;2.54;48.59
77410;BME280;66481;51.332;22.804;2023-02-28T14:43:03;100932.78;;;2.48;48.62
77410;BME280;66481;51.332;22.804;2023-02-28T14:47:14;100936.06;;;2.14;47.48
77410;BME280;66481;51.332;22.804;2023-02-28T14:51:21;100933.69;;;2.01;50.88
77410;BME280;66481;51.332;22.804;2023-02-28T14:55:27;100932.25;;;1.83;51.19
77410;BME280;66481;51.332;22.804;2023-02-28T14:59:34;100932.19;;;1.86;51.13
77410;BME280;66481;51.332;22.804;2023-02-28T15:09:16;100918.63;;;1.66;52.20
77410;BME280;66481;51.332;22.804;2023-02-28T15:13:20;100917.91;;;1.59;53.02
77410;BME280;66481;51.332;22.804;2023-02-28T15:17:23;100918.81;;;1.57;53.16
77410;BME280;66481;51.332;22.804;2023-02-28T15:21:35;100914.94;;;1.28;55.05
77410;BME280;66481;51.332;22.804;2023-02-28T15:25:39;100919.31;;;1.24;54.60
77410;BME280;66481;51.332;22.804;2023-02-28T15:29:45;100915.00;;;1.25;54.70
77410;BME280;66481;51.332;22.804;2023-02-28T15:33:56;100917.66;;;1.22;56.22
77410;BME280;66481;51.332;22.804;2023-02-28T15:38:16;100914.53;;;0.98;56.13
77410;BME280;66481;51.332;22.804;2023-02-28T15:42:20;100912.06;;;0.87;56.69
77410;BME280;66481;51.332;22.804;2023-02-28T15:46:22;100909.72;;;0.67;56.78
77410;BME280;66481;51.332;22.804;2023-02-28T15:50:23;100900.38;;;0.55;57.00
77410;BME280;66481;51.332;22.804;2023-02-28T15:54:28;100902.38;;;0.33;58.14
77410;BME280;66481;51.332;22.804;2023-02-28T15:58:31;100907.75;;;0.21;58.52
77410;BME280;66481;51.332;22.804;2023-02-28T16:02:37;100910.56;;;-0.02;60.74
77410;BME280;66481;51.332;22.804;2023-02-28T16:06:44;100918.59;;;-0.21;61.82
77410;BME280;66481;51.332;22.804;2023-02-28T16:11:02;100925.75;;;-0.44;63.20
77410;BME280;66481;51.332;22.804;2023-02-28T16:15:14;100929.41;;;-0.71;64.44
77410;BME280;66481;51.332;22.804;2023-02-28T16:19:19;100926.91;;;-0.84;64.92
77410;BME280;66481;51.332;22.804;2023-02-28T16:23:21;100933.91;;;-0.92;65.02
77410;BME280;66481;51.332;22.804;2023-02-28T16:27:32;100937.56;;;-1.19;65.84
77410;BME280;66481;51.332;22.804;2023-02-28T16:31:37;100944.59;;;-1.44;67.23
77410;BME280;66481;51.332;22.804;2023-02-28T16:35:40;100949.88;;;-1.67;68.29
77410;BME280;66481;51.332;22.804;2023-02-28T16:39:42;100948.22;;;-1.88;69.16
77410;BME280;66481;51.332;22.804;2023-02-28T16:43:49;100960.31;;;-1.91;70.06
77410;BME280;66481;51.332;22.804;2023-02-28T16:47:51;100956.81;;;-1.82;68.98
77410;BME280;66481;51.332;22.804;2023-02-28T16:51:52;100960.25;;;-1.77;68.79
77410;BME280;66481;51.332;22.804;2023-02-28T16:55:53;100956.84;;;-1.94;69.52
77410;BME280;66481;51.332;22.804;2023-02-28T16:59:55;100962.06;;;-2.03;68.72
77410;BME280;66481;51.332;22.804;2023-02-28T17:03:56;100951.66;;;-1.85;67.83
77410;BME280;66481;51.332;22.804;2023-02-28T17:08:00;100962.03;;;-1.83;67.16
77410;BME280;66481;51.332;22.804;2023-02-28T17:12:01;100970.69;;;-1.92;67.67
77410;BME280;66481;51.332;22.804;2023-02-28T17:16:02;100974.16;;;-1.99;68.50
77410;BME280;66481;51.332;22.804;2023-02-28T17:20:04;100976.78;;;-2.02;67.98
77410;BME280;66481;51.332;22.804;2023-02-28T17:24:06;100977.66;;;-2.16;68.84
77410;BME280;66481;51.332;22.804;2023-02-28T17:28:08;100971.63;;;-2.35;70.20
77410;BME280;66481;51.332;22.804;2023-02-28T17:32:10;100964.72;;;-2.40;71.69
77410;BME280;66481;51.332;22.804;2023-02-28T17:36:16;100968.16;;;-2.46;72.49
77410;BME280;66481;51.332;22.804;2023-02-28T17:40:21;100962.97;;;-2.66;74.83
77410;BME280;66481;51.332;22.804;2023-02-28T17:44:24;100963.81;;;-2.78;75.54
77410;BME280;66481;51.332;22.804;2023-02-28T17:48:26;100962.94;;;-2.97;74.61
77410;BME280;66481;51.332;22.804;2023-02-28T17:52:28;100965.47;;;-3.12;74.28
77410;BME280;66481;51.332;22.804;2023-02-28T17:56:30;100966.34;;;-3.18;74.67
77410;BME280;66481;51.332;22.804;2023-02-28T18:00:32;100963.75;;;-3.15;74.51
77410;BME280;66481;51.332;22.804;2023-02-28T18:04:34;100954.22;;;-3.24;75.99
77410;BME280;66481;51.332;22.804;2023-02-28T18:08:35;100956.00;;;-3.16;76.34
77410;BME280;66481;51.332;22.804;2023-02-28T18:12:37;100969.75;;;-3.21;79.15
77410;BME280;66481;51.332;22.804;2023-02-28T18:16:42;100969.75;;;-3.30;78.55
77410;BME280;66481;51.332;22.804;2023-02-28T18:20:45;100963.59;;;-3.53;77.58
77410;BME280;66481;51.332;22.804;2023-02-28T18:24:49;100965.31;;;-3.55;80.04
77410;BME280;66481;51.332;22.804;2023-02-28T18:28:51;100970.53;;;-3.49;81.56
77410;BME280;66481;51.332;22.804;2023-02-28T18:32:53;100972.19;;;-3.64;82.95
77410;BME280;66481;51.332;22.804;2023-02-28T18:36:55;100978.22;;;-3.60;84.07
77410;BME280;66481;51.332;22.804;2023-02-28T18:41:00;100978.16;;;-3.72;82.26
77410;BME280;66481;51.332;22.804;2023-02-28T18:45:03;100970.41;;;-3.72;83.04
77410;BME280;66481;51.332;22.804;2023-02-28T18:49:06;100966.13;;;-3.73;81.85
77410;BME280;66481;51.332;22.804;2023-02-28T18:53:08;100961.88;;;-3.59;80.96
77410;BME280;66481;51.332;22.804;2023-02-28T18:57:09;100958.47;;;-3.47;82.23
77410;BME280;66481;51.332;22.804;2023-02-28T19:01:18;100947.19;;;-3.60;84.95
77410;BME280;66481;51.332;22.804;2023-02-28T19:05:21;100934.25;;;-3.65;83.69
77410;BME280;66481;51.332;22.804;2023-02-28T19:09:22;100936.00;;;-3.57;82.74
77410;BME280;66481;51.332;22.804;2023-02-28T19:13:24;100958.50;;;-3.36;82.11
77410;BME280;66481;51.332;22.804;2023-02-28T19:17:26;100953.38;;;-3.30;82.16
77410;BME280;66481;51.332;22.804;2023-02-28T19:21:28;100955.09;;;-3.18;82.08
77410;BME280;66481;51.332;22.804;2023-02-28T19:25:30;100936.13;;;-3.21;81.45
77410;BME280;66481;51.332;22.804;2023-02-28T19:34:47;100943.81;;;-3.47;82.04
77410;BME280;66481;51.332;22.804;2023-02-28T19:38:49;100942.97;;;-3.40;81.68
77410;BME280;66481;51.332;22.804;2023-02-28T19:42:50;100945.59;;;-3.29;80.15
77410;BME280;66481;51.332;22.804;2023-02-28T19:46:52;100924.91;;;-3.30;81.18
77410;BME280;66481;51.332;22.804;2023-02-28T19:51:00;100928.31;;;-3.42;80.84
77410;BME280;66481;51.332;22.804;2023-02-28T19:55:02;100918.81;;;-3.48;81.68
77410;BME280;66481;51.332;22.804;2023-02-28T19:59:03;100913.63;;;-3.42;80.40
77410;BME280;66481;51.332;22.804;2023-02-28T20:03:05;100928.31;;;-3.41;80.47
77410;BME280;66481;51.332;22.804;2023-02-28T20:07:07;100923.97;;;-3.49;79.46
77410;BME280;66481;51.332;22.804;2023-02-28T20:11:14;100925.72;;;-3.41;80.85
77410;BME280;66481;51.332;22.804;2023-02-28T20:15:16;100938.63;;;-3.47;80.55
77410;BME280;66481;51.332;22.804;2023-02-28T20:19:17;100942.97;;;-3.40;79.97
77410;BME280;66481;51.332;22.804;2023-02-28T20:23:19;100929.16;;;-3.49;80.59
77410;BME280;66481;51.332;22.804;2023-02-28T20:27:21;100945.59;;;-3.32;79.87
77410;BME280;66481;51.332;22.804;2023-02-28T20:31:24;100941.22;;;-3.44;79.85
77410;BME280;66481;51.332;22.804;2023-02-28T20:35:26;100933.38;;;-3.65;81.02
77410;BME280;66481;51.332;22.804;2023-02-28T20:39:27;100927.34;;;-3.66;80.53
77410;BME280;66481;51.332;22.804;2023-02-28T20:43:29;100930.78;;;-3.73;80.93
77410;BME280;66481;51.332;22.804;2023-02-28T20:47:32;100922.09;;;-3.84;81.15
77410;BME280;66481;51.332;22.804;2023-02-28T20:51:34;100925.53;;;-3.85;82.73
77410;BME280;66481;51.332;22.804;2023-02-28T20:55:55;100923.75;;;-3.95;82.76
77410;BME280;66481;51.332;22.804;2023-02-28T21:00:14;100932.34;;;-4.04;83.36
77410;BME280;66481;51.332;22.804;2023-02-28T21:04:19;100924.56;;;-4.07;83.81
77410;BME280;66481;51.332;22.804;2023-02-28T21:08:21;100921.16;;;-3.99;82.55
77410;BME280;66481;51.332;22.804;2023-02-28T21:12:23;100911.69;;;-4.01;84.00
77410;BME280;66481;51.332;22.804;2023-02-28T21:16:26;100925.31;;;-4.25;84.22
77410;BME280;66481;51.332;22.804;2023-02-28T21:20:28;100938.03;;;-4.55;85.76
77410;BME280;66481;51.332;22.804;2023-02-28T21:24:30;100925.78;;;-4.74;86.62
77410;BME280;66481;51.332;22.804;2023-02-28T21:28:33;100934.53;;;-4.60;87.57
77410;BME280;66481;51.332;22.804;2023-02-28T21:32:35;100914.91;;;-4.39;85.86
77410;BME280;66481;51.332;22.804;2023-02-28T21:36:38;100923.63;;;-4.16;84.25
77410;BME280;66481;51.332;22.804;2023-02-28T21:40:39;100925.31;;;-4.25;85.25
77410;BME280;66481;51.332;22.804;2023-02-28T21:44:41;100916.66;;;-4.32;85.24
77410;BME280;66481;51.332;22.804;2023-02-28T21:48:42;100925.28;;;-4.28;84.91
77410;BME280;66481;51.332;22.804;2023-02-28T21:52:43;100928.59;;;-4.49;86.63
77410;BME280;66481;51.332;22.804;2023-02-28T21:56:45;100922.56;;;-4.48;86.61
77410;BME280;66481;51.332;22.804;2023-02-28T22:00:46;100929.44;;;-4.50;86.07
77410;BME280;66481;51.332;22.804;2023-02-28T22:04:48;100899.97;;;-4.74;86.70
77410;BME280;66481;51.332;22.804;2023-02-28T22:08:54;100934.63;;;-4.47;86.29
77410;BME280;66481;51.332;22.804;2023-02-28T22:12:55;100937.19;;;-4.49;85.15
77410;BME280;66481;51.332;22.804;2023-02-28T22:17:02;100938.97;;;-4.46;84.12
77410;BME280;66481;51.332;22.804;2023-02-28T22:21:08;100935.44;;;-4.55;84.47
77410;BME280;66481;51.332;22.804;2023-02-28T22:25:11;100928.56;;;-4.53;84.86
77410;BME280;66481;51.332;22.804;2023-02-28T22:29:13;100923.47;;;-4.46;85.85
77410;BME280;66481;51.332;22.804;2023-02-28T22:33:15;100918.19;;;-4.56;86.71
77410;BME280;66481;51.332;22.804;2023-02-28T22:37:18;100914.84;;;-4.45;85.54
77410;BME280;66481;51.332;22.804;2023-02-28T22:41:22;100914.09;;;-4.26;84.88
77410;BME280;66481;51.332;22.804;2023-02-28T22:45:24;100914.09;;;-4.24;83.67
77410;BME280;66481;51.332;22.804;2023-02-28T22:49:25;100921.06;;;-4.16;83.85
77410;BME280;66481;51.332;22.804;2023-02-28T22:53:30;100911.56;;;-4.21;83.26
77410;BME280;66481;51.332;22.804;2023-02-28T22:57:31;100921.03;;;-4.17;84.40
77410;BME280;66481;51.332;22.804;2023-02-28T23:01:33;100917.56;;;-4.22;85.17
77410;BME280;66481;51.332;22.804;2023-02-28T23:05:35;100911.53;;;-4.23;84.23